• Join FlightAware (Why Join?)
  • Login
  • US Flag 
09:18AM EDT


 

Airport Tracker/Info


-or-


 

Live Flight TrackerFlight Track Log ✈ UCA3597 ✈ 05-Oct-2013 ✈ KBGM - KIAD

Flight Track Log - Related Links

Times and Time Zones

All times are in EDT time to prevent confusion due to time zone crossing. See the UCA3597 flight status page for this flight to view local times or setup timezone preferences in your user account.

Time Position Orientation Groundspeed Altitude Reporting Facility
EDT Latitude Longitude Course Direction KTS MPH feet Rate Location/Type
07:29PM 42.1886 -75.9681 212° Southwest 134 154 2,700  Level New York Center
07:30PM 42.1525 -75.9850 199° South 129 148 4,200 1,440 Climbing New York Center
07:31PM 42.1153 -76.0239 218° Southwest 142 163 5,600 1,320 Climbing New York Center
07:32PM 42.0758 -76.0683 220° Southwest 162 186 6,900 1,320 Climbing New York Center
07:33PM 42.0322 -76.1122 217° Southwest 196 226 8,300 1,320 Climbing New York Center
07:34PM 41.8397 -76.1549 212° Southwest  Level Estimated
07:34PM 41.9947 -76.1594 223° Southwest 196 226 9,600  Level New York Center
07:35PM 41.9692 -76.2158 239° Southwest 188 216 11,100 1,440 Climbing New York Center
07:36PM 41.9461 -76.2642 237° Southwest 183 211 12,500 1,320 Climbing New York Center
07:37PM 41.9186 -76.3206 237° Southwest 178 205 13,800 1,200 Climbing New York Center
07:38PM 41.8808 -76.3703 224° Southwest 186 214 15,000 1,080 Climbing New York Center
07:39PM 41.8328 -76.4164 216° Southwest 191 220 16,000 480 Climbing New York Center
07:40PM 41.7731 -76.4503 203° Southwest 216 249 16,000  Level New York Center
07:41PM 41.7094 -76.4725 195° South 254 292 16,100  Climbing New York Center
07:42PM 41.6347 -76.5078 199° South 269 310 16,000 -60 Descending New York Center
07:43PM 41.5625 -76.5403 199° South 275 316 16,000  Level New York Center
07:44PM 41.4922 -76.5731 199° South 275 316 16,000  Level New York Center
07:45PM 41.4303 -76.6011 199° South 275 316 16,100  Climbing New York Center
07:46PM 41.3600 -76.6308 198° South 275 316 16,100  Level New York Center
07:47PM 41.2833 -76.6656 199° South 275 316 16,100  Level New York Center
07:48PM 41.2150 -76.7011 201° Southwest 275 316 16,100  Level New York Center
07:49PM 41.1531 -76.7286 198° South 270 311 16,100  Level New York Center
07:50PM 41.0828 -76.7583 198° South 270 311 16,100  Level New York Center
07:51PM 41.0128 -76.7878 198° South 270 311 16,100  Level New York Center
07:52PM 40.9358 -76.8225 199° South 270 311 16,100  Level New York Center
07:53PM 40.8656 -76.8517 197° South 270 311 16,100 -60 Level New York Center
07:54PM 40.7972 -76.8842 200° South 270 311 16,000  Descending New York Center
07:55PM 40.7253 -76.9078 194° South 270 311 16,100  Climbing New York Center
07:56PM 40.6533 -76.9286 192° South 265 305 16,100 -60 Level New York Center
07:57PM 40.5811 -76.9522 194° South 271 312 16,000  Descending New York Center
07:58PM 40.5069 -76.9731 192° South 266 306 16,100  Climbing New York Center
07:59PM 40.4350 -76.9964 194° South 266 306 16,000 -60 Descending New York Center
08:00PM 40.3608 -77.0197 193° South 266 306 16,000  Level New York Center
08:01PM 40.2867 -77.0431 193° South 266 306 16,100 -300 Climbing New York Center
08:02PM 40.1667 -77.0833 194° South 280 322 15,300 -720 Descending Potomac TRACON
08:03PM 40.0833 -77.1000 189° South 271 312 14,300 -1,020 Descending Potomac TRACON
08:04PM 40.0000 -77.1333 197° South 273 314 13,200 -1,020 Descending Potomac TRACON
08:05PM 39.9333 -77.1500 191° South 273 314 12,300 -1,020 Descending Potomac TRACON
08:06PM 39.8667 -77.1833 201° Southwest 267 307 11,300 -1,020 Descending Potomac TRACON
08:07PM 39.8000 -77.2333 210° Southwest 266 306 10,300 -1,020 Descending Potomac TRACON
08:08PM 39.7333 -77.2667 201° Southwest 262 302 9,300 -1,020 Descending Potomac TRACON
08:09PM 39.6833 -77.3000 207° Southwest 259 298 8,400 -1,020 Descending Potomac TRACON
08:10PM 39.6000 -77.3333 197° South 256 295 7,300 -780 Descending Potomac TRACON
08:11PM 39.5333 -77.3667 201° Southwest 247 284 6,800 -780 Descending Potomac TRACON
08:12PM 39.4833 -77.3833 194° South 258 297 5,900 -1,080 Descending Potomac TRACON
08:13PM 39.4000 -77.4167 197° South 255 293 4,700 -900 Descending Potomac TRACON
08:14PM 39.3333 -77.4333 191° South 243 280 4,000 -360 Descending Potomac TRACON
08:15PM 39.2667 -77.4333 180° South 236 272 4,000  Level Potomac TRACON
08:16PM 39.2000 -77.4333 180° South 233 268 4,000 -120 Level Potomac TRACON
08:17PM 39.1500 -77.4333 180° South 223 257 3,800 -660 Descending Potomac TRACON
08:18PM 39.0833 -77.4333 180° South 195 224 2,800 -960 Descending Potomac TRACON
08:20PM 39.0333 -77.4333 180° South 176 203 1,700 -900 Descending Potomac TRACON
08:20PM 39.0000 -77.4333 180° South 138 159 1,000 -780 Descending Potomac TRACON
08:22PM 38.9474 -77.4599 142° Southeast  Level Estimated
08:29PM 38.9474 -77.4599 322° Northwest  Level Estimated
08:30PM 38.9474 -77.4599 349° North  Level Estimated